Terminal Aerodrome Forecast
Issued by NWS Jackson, KY

Home | Current Version | Previous Version | Text Only | Print | Product List | Glossary On
Versions: 1 2 3 4 5 6 7 8 9 10 11 12 13
463
FTUS43 KJKL 220539
TAFLOZ
TAF
KLOZ 220539Z 2206/2306 VRB03KT P6SM SCT120
     FM220800 VRB04KT P6SM SCT030
     FM221000 VRB04KT P6SM BKN025
     FM221500 VRB03KT P6SM SCT025=

USA.gov is the U.S. government's official web portal to all federal, state and local government web resources and services.